createdAt,value
2022-11-18T00:01:06.732Z,95432.84
2022-11-18T00:03:09.311Z,95435.63
2022-11-18T00:05:11.920Z,95431.44
2022-11-18T00:07:14.620Z,95428.69
2022-11-18T00:09:17.412Z,95420.66
2022-11-18T00:11:38.176Z,95423.53
2022-11-18T00:13:58.244Z,95425.31
2022-11-18T00:16:03.110Z,95429.38
2022-11-18T00:18:05.773Z,95423.91
2022-11-18T00:20:08.825Z,95423.16
2022-11-18T00:22:13.362Z,95425.47
2022-11-18T00:24:15.989Z,95426.19
2022-11-18T00:26:18.631Z,95424.66
2022-11-18T00:28:21.317Z,95431.13
2022-11-18T00:30:24.885Z,95425.81
2022-11-18T00:32:28.806Z,95428.16
2022-11-18T00:34:31.426Z,95424.44
2022-11-18T00:36:34.065Z,95422.22
2022-11-18T00:38:36.859Z,95432.00
2022-11-18T00:40:39.460Z,95440.09
2022-11-18T00:42:53.686Z,95439.91
2022-11-18T00:44:56.313Z,95443.75
2022-11-18T00:46:59.196Z,95440.19
2022-11-18T00:49:03.423Z,95438.72
2022-11-18T00:51:10.778Z,95439.91
2022-11-18T00:53:13.378Z,95439.25
2022-11-18T00:55:16.043Z,95433.88
2022-11-18T00:57:18.660Z,95442.50
2022-11-18T00:59:21.546Z,95436.22
2022-11-18T01:01:24.391Z,95433.72
2022-11-18T01:03:28.085Z,95438.38
2022-11-18T01:05:32.046Z,95439.47
2022-11-18T01:07:34.723Z,95439.47
2022-11-18T01:09:37.354Z,95440.31
2022-11-18T01:11:57.485Z,95441.34
2022-11-18T01:14:00.120Z,95440.69
2022-11-18T01:16:06.326Z,95441.63
2022-11-18T01:18:09.074Z,95441.53
2022-11-18T01:20:12.596Z,95442.38
2022-11-18T01:22:16.592Z,95448.44
2022-11-18T01:24:19.312Z,95444.88
2022-11-18T01:26:21.996Z,95452.69
2022-11-18T01:28:24.616Z,95444.88
2022-11-18T01:30:27.282Z,95450.19
2022-11-18T01:32:29.952Z,95447.59
2022-11-18T01:34:32.634Z,95451.19
2022-11-18T01:36:35.255Z,95449.53
2022-11-18T01:38:39.213Z,95442.69
2022-11-18T01:40:42.941Z,95451.09
2022-11-18T01:42:45.619Z,95456.31
2022-11-18T01:45:00.700Z,95461.25
2022-11-18T01:47:03.306Z,95461.44
2022-11-18T01:49:08.712Z,95468.41
2022-11-18T01:51:16.280Z,95462.66
2022-11-18T01:53:24.226Z,95473.16
2022-11-18T01:55:32.537Z,95474.06
2022-11-18T01:57:35.520Z,95475.66
2022-11-18T01:59:42.855Z,95474.06
2022-11-18T02:01:48.393Z,95478.50
2022-11-18T02:03:52.316Z,95470.81
2022-11-18T02:05:55.861Z,95475.09
2022-11-18T02:07:59.286Z,95472.50
2022-11-18T02:10:04.308Z,95470.72
2022-11-18T02:12:09.588Z,95470.66
2022-11-18T02:14:12.580Z,95473.16
2022-11-18T02:16:19.695Z,95481.75
2022-11-18T02:18:31.995Z,95475.75
2022-11-18T02:20:40.094Z,95472.31
2022-11-18T02:23:14.466Z,95474.06
2022-11-18T02:25:29.798Z,95478.34
2022-11-18T02:27:56.096Z,95480.75
2022-11-18T02:30:04.535Z,95482.41
2022-11-18T02:32:12.659Z,95483.44
2022-11-18T02:34:23.031Z,95471.28
2022-11-18T02:36:32.791Z,95471.91
2022-11-18T02:38:42.795Z,95467.00
2022-11-18T02:40:48.720Z,95477.59
2022-11-18T02:42:56.506Z,95477.59
2022-11-18T02:45:05.085Z,95475.09
2022-11-18T02:47:12.477Z,95476.97
2022-11-18T02:49:21.148Z,95475.84
2022-11-18T02:51:27.550Z,95480.09
2022-11-18T02:53:32.631Z,95482.63
2022-11-18T02:55:37.167Z,95482.63
2022-11-18T02:57:42.306Z,95485.22
2022-11-18T02:59:44.861Z,95490.59
2022-11-18T03:01:49.489Z,95492.09
2022-11-18T03:03:52.585Z,95496.56
2022-11-18T03:06:05.471Z,95497.97
2022-11-18T03:08:13.734Z,95508.63
2022-11-18T03:10:16.592Z,95509.66
2022-11-18T03:12:28.941Z,95501.00
2022-11-18T03:14:41.779Z,95504.47
2022-11-18T03:16:53.914Z,95498.50
2022-11-18T03:19:04.114Z,95497.47
2022-11-18T03:21:12.939Z,95511.22
2022-11-18T03:23:26.396Z,95513.72
2022-11-18T03:25:37.727Z,95518.00
2022-11-18T03:27:47.619Z,95518.09
2022-11-18T03:29:58.843Z,95525.25
2022-11-18T03:32:07.501Z,95522.00
2022-11-18T03:34:14.459Z,95532.31
2022-11-18T03:36:20.898Z,95529.81
2022-11-18T03:38:30.081Z,95538.44
2022-11-18T03:40:36.153Z,95536.75
2022-11-18T03:42:42.551Z,95537.97
2022-11-18T03:44:52.677Z,95546.16
2022-11-18T03:47:01.025Z,95547.16
2022-11-18T03:49:08.924Z,95554.13
2022-11-18T03:51:15.616Z,95561.09
2022-11-18T03:53:20.161Z,95561.19
2022-11-18T03:55:26.326Z,95572.97
2022-11-18T03:57:36.138Z,95568.81
2022-11-18T03:59:44.066Z,95572.31
2022-11-18T04:01:52.269Z,95577.53
2022-11-18T04:03:55.110Z,95577.53
2022-11-18T04:06:05.655Z,95574.00
2022-11-18T04:08:12.100Z,95577.47
2022-11-18T04:10:18.570Z,95575.47
2022-11-18T04:12:24.537Z,95580.69
2022-11-18T04:14:27.458Z,95578.19
2022-11-18T04:16:30.066Z,95588.41
2022-11-18T04:18:32.657Z,95599.63
2022-11-18T04:20:35.374Z,95603.66
2022-11-18T04:22:39.351Z,95603.66
2022-11-18T04:24:42.523Z,95610.03
2022-11-18T04:26:45.150Z,95615.09
2022-11-18T04:28:47.751Z,95618.50
2022-11-18T04:30:50.978Z,95613.38
2022-11-18T04:32:53.637Z,95620.63
2022-11-18T04:34:56.291Z,95613.94
2022-11-18T04:36:59.321Z,95623.31
2022-11-18T04:39:03.324Z,95630.09
2022-11-18T04:41:06.302Z,95627.19
2022-11-18T04:43:08.889Z,95634.06
2022-11-18T04:45:12.145Z,95631.56
2022-11-18T04:47:14.828Z,95634.88
2022-11-18T04:49:17.797Z,95640.47
2022-11-18T04:51:20.581Z,95646.72
2022-11-18T04:53:23.249Z,95648.84
2022-11-18T04:55:27.361Z,95639.34
2022-11-18T04:57:30.011Z,95637.47
2022-11-18T04:59:32.996Z,95641.19
2022-11-18T05:01:36.385Z,95633.28
2022-11-18T05:03:39.139Z,95645.16
2022-11-18T05:05:41.769Z,95648.66
2022-11-18T05:07:44.666Z,95654.31
2022-11-18T05:09:47.299Z,95651.72
2022-11-18T05:12:08.644Z,95651.44
2022-11-18T05:14:11.312Z,95653.38
2022-11-18T05:16:13.878Z,95658.84
2022-11-18T05:18:16.501Z,95655.31
2022-11-18T05:20:19.290Z,95663.84
2022-11-18T05:22:21.898Z,95664.44
2022-11-18T05:24:25.036Z,95666.94
2022-11-18T05:26:27.684Z,95669.44
2022-11-18T05:28:31.806Z,95668.44
2022-11-18T05:30:34.483Z,95667.44
2022-11-18T05:32:37.120Z,95670.78
2022-11-18T05:34:40.383Z,95673.38
2022-11-18T05:36:43.098Z,95672.53
2022-11-18T05:38:46.156Z,95672.47
2022-11-18T05:40:48.783Z,95672.47
2022-11-18T05:43:08.864Z,95682.03
2022-11-18T05:45:12.763Z,95681.25
2022-11-18T05:47:15.437Z,95681.34
2022-11-18T05:49:18.212Z,95679.00
2022-11-18T05:51:21.220Z,95683.47
2022-11-18T05:53:25.611Z,95679.19
2022-11-18T05:55:32.646Z,95684.38
2022-11-18T05:57:35.217Z,95682.81
2022-11-18T05:59:37.837Z,95689.56
2022-11-18T06:01:46.291Z,95695.53
2022-11-18T06:03:49.142Z,95689.47
2022-11-18T06:05:54.419Z,95687.72
2022-11-18T06:07:59.009Z,95699.22
2022-11-18T06:10:08.604Z,95699.97
2022-11-18T06:12:17.149Z,95701.75
2022-11-18T06:14:23.392Z,95713.13
2022-11-18T06:16:29.007Z,95710.53
2022-11-18T06:18:34.299Z,95709.47
2022-11-18T06:20:40.458Z,95710.38
2022-11-18T06:22:46.655Z,95714.13
2022-11-18T06:24:49.737Z,95720.19
2022-11-18T06:26:53.046Z,95728.81
2022-11-18T06:28:57.532Z,95734.69
2022-11-18T06:31:00.137Z,95734.00
2022-11-18T06:33:02.768Z,95729.00
2022-11-18T06:35:08.328Z,95723.94
2022-11-18T06:37:15.241Z,95726.31
2022-11-18T06:39:18.129Z,95733.00
2022-11-18T06:41:21.043Z,95738.78
2022-11-18T06:43:41.830Z,95732.31
2022-11-18T06:46:08.867Z,95734.88
2022-11-18T06:48:12.055Z,95738.47
2022-11-18T06:50:16.552Z,95743.38
2022-11-18T06:52:19.256Z,95745.50
2022-11-18T06:54:22.339Z,95743.16
2022-11-18T06:56:25.720Z,95745.75
2022-11-18T06:58:28.355Z,95750.78
2022-11-18T07:00:31.060Z,95757.91
2022-11-18T07:02:33.719Z,95753.72
2022-11-18T07:04:39.559Z,95758.56
2022-11-18T07:06:43.500Z,95768.28
2022-11-18T07:08:46.830Z,95770.00
2022-11-18T07:10:53.533Z,95762.78
2022-11-18T07:12:56.129Z,95769.81
2022-11-18T07:14:58.702Z,95772.72
2022-11-18T07:17:01.374Z,95772.94
2022-11-18T07:19:10.176Z,95767.69
2022-11-18T07:21:14.408Z,95774.50
2022-11-18T07:23:18.353Z,95774.56
2022-11-18T07:25:21.023Z,95783.22
2022-11-18T07:27:25.687Z,95781.38
2022-11-18T07:29:28.270Z,95781.38
2022-11-18T07:31:31.560Z,95785.41
2022-11-18T07:33:35.251Z,95783.56
2022-11-18T07:35:37.911Z,95790.59
2022-11-18T07:37:40.510Z,95794.63
2022-11-18T07:39:44.420Z,95794.69
2022-11-18T07:41:47.049Z,95796.22
2022-11-18T07:43:53.076Z,95799.66
2022-11-18T07:45:58.951Z,95802.34
2022-11-18T07:48:01.772Z,95802.59
2022-11-18T07:50:04.853Z,95807.03
2022-11-18T07:52:07.551Z,95808.81
2022-11-18T07:54:11.702Z,95812.16
2022-11-18T07:56:16.111Z,95811.13
2022-11-18T07:58:18.714Z,95821.03
2022-11-18T08:00:21.461Z,95821.81
2022-11-18T08:02:24.035Z,95829.16
2022-11-18T08:04:26.686Z,95832.03
2022-11-18T08:06:31.390Z,95839.22
2022-11-18T08:08:37.223Z,95837.41
2022-11-18T08:10:39.846Z,95842.69
2022-11-18T08:12:43.930Z,95849.97
2022-11-18T08:14:46.603Z,95850.31
2022-11-18T08:16:49.198Z,95853.41
2022-11-18T08:18:52.733Z,95861.38
2022-11-18T08:20:55.597Z,95857.94
2022-11-18T08:22:58.236Z,95866.22
2022-11-18T08:25:00.823Z,95863.97
2022-11-18T08:27:03.444Z,95866.75
2022-11-18T08:29:07.450Z,95870.94
2022-11-18T08:31:11.685Z,95875.28
2022-11-18T08:33:14.284Z,95874.59
2022-11-18T08:35:16.936Z,95871.59
2022-11-18T08:37:19.617Z,95875.78
2022-11-18T08:39:22.353Z,95881.00
2022-11-18T08:41:30.831Z,95875.78
2022-11-18T08:43:33.485Z,95877.47
2022-11-18T08:45:38.063Z,95875.78
2022-11-18T08:47:40.838Z,95882.81
2022-11-18T08:49:43.460Z,95886.03
2022-11-18T08:51:46.088Z,95885.19
2022-11-18T08:53:48.754Z,95880.34
2022-11-18T08:55:57.347Z,95881.25
2022-11-18T08:58:02.146Z,95881.59
2022-11-18T09:00:08.295Z,95884.50
2022-11-18T09:02:16.257Z,95892.38
2022-11-18T09:04:19.109Z,95892.38
2022-11-18T09:06:24.713Z,95891.53
2022-11-18T09:08:29.726Z,95893.66
2022-11-18T09:10:32.703Z,95897.09
2022-11-18T09:12:35.385Z,95895.56
2022-11-18T09:17:00.814Z,95895.19
2022-11-18T09:19:31.648Z,95906.47
2022-11-18T09:21:28.258Z,95899.53
2022-11-18T09:23:32.106Z,95903.88
2022-11-18T09:25:34.763Z,95896.03
2022-11-18T09:27:37.376Z,95895.09
2022-11-18T09:29:40.581Z,95897.44
2022-11-18T09:31:43.184Z,95897.28
2022-11-18T09:33:46.033Z,95904.66
2022-11-18T09:35:50.239Z,95905.44
2022-11-18T09:37:52.866Z,95903.09
2022-11-18T09:39:55.483Z,95916.09
2022-11-18T09:42:08.873Z,95916.09
2022-11-18T09:44:26.746Z,95911.31
2022-11-18T09:46:36.096Z,95918.44
2022-11-18T09:48:56.338Z,95925.56
2022-11-18T09:51:01.210Z,95921.97
2022-11-18T09:53:16.493Z,95923.16
2022-11-18T09:55:20.207Z,95922.56
2022-11-18T09:57:26.341Z,95919.63
2022-11-18T09:59:32.760Z,95923.91
2022-11-18T10:01:37.663Z,95929.16
2022-11-18T10:03:40.965Z,95940.88
2022-11-18T10:05:50.895Z,95939.41
2022-11-18T10:08:16.287Z,95935.63
2022-11-18T10:10:26.500Z,95937.97
2022-11-18T10:12:40.946Z,95937.38
2022-11-18T10:14:58.015Z,95943.50
2022-11-18T10:17:09.308Z,95945.78
2022-11-18T10:19:23.551Z,95942.59
2022-11-18T10:21:38.903Z,95943.09
2022-11-18T10:23:52.558Z,95950.13
2022-11-18T10:25:55.561Z,95946.78
2022-11-18T10:28:14.814Z,95955.63
2022-11-18T10:30:19.689Z,95956.22
2022-11-18T10:32:22.480Z,95958.22
2022-11-18T10:34:25.203Z,95955.88
2022-11-18T10:36:30.377Z,95953.25
2022-11-18T10:38:32.984Z,95953.03
2022-11-18T10:40:41.245Z,95959.22
2022-11-18T10:42:45.968Z,95953.25
2022-11-18T10:44:48.588Z,95960.47
2022-11-18T10:46:51.158Z,95967.09
2022-11-18T10:49:17.226Z,95959.22
2022-11-18T10:51:24.810Z,95957.63
2022-11-18T10:53:32.144Z,95959.72
2022-11-18T10:55:35.056Z,95970.97
2022-11-18T10:57:43.466Z,95970.88
2022-11-18T10:59:50.983Z,95967.69
2022-11-18T11:02:08.340Z,95967.13
2022-11-18T11:04:21.014Z,95963.84
2022-11-18T11:06:31.283Z,95955.88
2022-11-18T11:08:37.888Z,95959.22
2022-11-18T11:10:40.669Z,95949.69
2022-11-18T11:12:49.885Z,95949.84
2022-11-18T11:14:54.817Z,95952.59
2022-11-18T11:17:06.089Z,95944.78
2022-11-18T11:19:13.287Z,95952.38
2022-11-18T11:21:17.821Z,95948.91
2022-11-18T11:23:23.644Z,95958.06
2022-11-18T11:30:19.941Z,95957.66
2022-11-18T11:32:32.176Z,95960.06
2022-11-18T11:34:44.622Z,95953.63
2022-11-18T11:36:53.734Z,95960.47
2022-11-18T11:39:04.873Z,95968.06
2022-11-18T11:41:18.032Z,95958.88
2022-11-18T11:43:35.401Z,95947.88
2022-11-18T11:45:48.327Z,95959.97
2022-11-18T11:48:11.529Z,95957.59
2022-11-18T11:50:18.804Z,95962.44
2022-11-18T11:52:32.912Z,95964.22
2022-11-18T11:54:46.020Z,95976.00
2022-11-18T11:56:54.643Z,95970.69
2022-11-18T11:59:18.750Z,95977.13
2022-11-18T12:01:32.356Z,95984.75
2022-11-18T12:03:51.734Z,95981.03
2022-11-18T12:05:54.907Z,95983.41
2022-11-18T12:08:00.405Z,95984.88
2022-11-18T12:10:24.707Z,95983.22
2022-11-18T12:12:36.623Z,95974.66
2022-11-18T12:14:42.283Z,95983.13
2022-11-18T12:16:53.876Z,95983.22
2022-11-18T12:19:00.999Z,95982.47
2022-11-18T12:21:03.799Z,95983.69
2022-11-18T12:23:18.541Z,95983.22
2022-11-18T12:25:45.323Z,95986.63
2022-11-18T12:28:00.826Z,95986.88
2022-11-18T12:30:05.859Z,95998.47
2022-11-18T12:32:29.391Z,95997.56
2022-11-18T12:34:39.072Z,95996.63
2022-11-18T12:36:42.456Z,95988.69
2022-11-18T12:38:45.074Z,95995.16
2022-11-18T12:40:52.554Z,96016.97
2022-11-18T12:43:13.522Z,96001.94
2022-11-18T12:45:48.309Z,95994.13
2022-11-18T12:47:58.296Z,95997.69
2022-11-18T12:50:12.626Z,95995.84
2022-11-18T12:52:48.637Z,95993.75
2022-11-18T12:54:51.756Z,95990.47
2022-11-18T12:56:55.460Z,95993.47
2022-11-18T12:59:00.756Z,96007.16
2022-11-18T13:01:12.106Z,96006.00
2022-11-18T13:03:24.430Z,96008.19
2022-11-18T13:05:28.983Z,96013.81
2022-11-18T13:07:51.402Z,96012.31
2022-11-18T13:09:54.366Z,96023.22
2022-11-18T13:12:01.238Z,96018.09
2022-11-18T13:14:23.771Z,96028.06
2022-11-18T13:16:45.105Z,96015.81
2022-11-18T13:18:51.939Z,96026.75
2022-11-18T13:20:59.012Z,96021.03
2022-11-18T13:23:20.727Z,96022.97
2022-11-18T13:25:25.570Z,96025.38
2022-11-18T13:27:38.407Z,96027.75
2022-11-18T13:29:54.023Z,96022.88
2022-11-18T13:32:12.963Z,96019.38
2022-11-18T13:34:20.111Z,96022.66
2022-11-18T13:36:25.074Z,96019.00
2022-11-18T13:38:28.788Z,96016.19
2022-11-18T13:40:39.959Z,96013.81
2022-11-18T13:42:45.795Z,96022.19
2022-11-18T13:44:54.269Z,96022.97
2022-11-18T13:47:05.905Z,96014.31
2022-11-18T13:49:17.805Z,96012.63
2022-11-18T13:51:21.742Z,96017.00
2022-11-18T13:53:32.929Z,96023.47
2022-11-18T13:55:39.288Z,96021.13
2022-11-18T13:57:48.094Z,96016.47
2022-11-18T13:59:52.015Z,96024.72
2022-11-18T14:01:56.796Z,96022.88
2022-11-18T14:04:03.027Z,96013.19
2022-11-18T14:06:05.991Z,96021.34
2022-11-18T14:08:28.677Z,96020.03
2022-11-18T14:10:39.124Z,96027.91
2022-11-18T14:12:42.827Z,96028.75
2022-11-18T14:14:46.550Z,96030.19
2022-11-18T14:16:49.291Z,96031.34
2022-11-18T14:18:52.895Z,96026.91
2022-11-18T14:20:57.287Z,96035.22
2022-11-18T14:23:02.010Z,96034.22
2022-11-18T14:25:16.978Z,96034.63
2022-11-18T14:27:34.933Z,96038.09
2022-11-18T14:29:37.526Z,96042.34
2022-11-18T14:31:40.194Z,96049.41
2022-11-18T14:33:42.793Z,96047.91
2022-11-18T14:35:49.331Z,96044.88
2022-11-18T14:38:00.134Z,96045.63
2022-11-18T14:40:16.495Z,96050.53
2022-11-18T14:42:19.126Z,96045.41
2022-11-18T14:44:24.311Z,96049.50
2022-11-18T14:46:26.956Z,96052.94
2022-11-18T14:48:32.789Z,96046.56
2022-11-18T14:50:35.684Z,96050.94
2022-11-18T14:52:38.541Z,96061.25
2022-11-18T14:54:43.446Z,96065.97
2022-11-18T14:56:49.009Z,96065.22
2022-11-18T14:58:51.815Z,96067.22
2022-11-18T15:00:54.512Z,96069.25
2022-11-18T15:02:57.202Z,96068.25
2022-11-18T15:05:00.240Z,96068.91
2022-11-18T15:07:02.871Z,96068.50
2022-11-18T15:09:07.710Z,96074.13
2022-11-18T15:11:11.961Z,96076.78
2022-11-18T15:13:14.546Z,96074.53
2022-11-18T15:15:17.289Z,96091.09
2022-11-18T15:17:20.719Z,96083.50
2022-11-18T15:19:23.379Z,96087.47
2022-11-18T15:21:27.107Z,96098.13
2022-11-18T15:23:30.035Z,96097.84
2022-11-18T15:25:32.733Z,96096.59
2022-11-18T15:27:37.735Z,96100.66
2022-11-18T15:29:41.495Z,96105.16
2022-11-18T15:31:44.138Z,96104.91
2022-11-18T15:33:48.552Z,96108.28
2022-11-18T15:35:53.308Z,96103.63
2022-11-18T15:37:55.934Z,96107.56
2022-11-18T15:39:59.658Z,96104.44
2022-11-18T15:42:02.276Z,96105.13
2022-11-18T15:44:06.599Z,96102.97
2022-11-18T15:46:09.999Z,96107.66
2022-11-18T15:48:12.646Z,96108.03
2022-11-18T15:50:15.333Z,96112.31
2022-11-18T15:52:18.964Z,96114.13
2022-11-18T15:54:21.879Z,96113.53
2022-11-18T15:56:28.294Z,96111.91
2022-11-18T15:58:35.714Z,96109.81
2022-11-18T16:00:40.100Z,96113.03
2022-11-18T16:02:45.160Z,96115.47
2022-11-18T16:04:48.097Z,96120.22
2022-11-18T16:06:50.671Z,96124.22
2022-11-18T16:08:59.271Z,96120.38
2022-11-18T16:11:20.179Z,96124.88
2022-11-18T16:13:22.791Z,96124.78
2022-11-18T16:15:43.199Z,96127.59
2022-11-18T16:17:47.163Z,96119.94
2022-11-18T16:19:49.780Z,96120.81
2022-11-18T16:21:57.281Z,96120.97
2022-11-18T16:24:01.728Z,96127.66
2022-11-18T16:26:04.507Z,96125.38
2022-11-18T16:28:07.461Z,96131.75
2022-11-18T16:30:32.465Z,96133.97
2022-11-18T16:32:35.757Z,96134.34
2022-11-18T16:34:39.754Z,96138.00
2022-11-18T16:36:44.030Z,96136.41
2022-11-18T16:38:46.646Z,96143.81
2022-11-18T16:40:55.994Z,96148.94
2022-11-18T16:42:58.623Z,96144.41
2022-11-18T16:45:04.110Z,96153.84
2022-11-18T16:47:14.394Z,96150.22
2022-11-18T16:49:19.379Z,96145.19
2022-11-18T16:51:25.599Z,96158.34
2022-11-18T16:53:28.171Z,96155.06
2022-11-18T16:55:30.905Z,96153.44
2022-11-18T16:57:33.521Z,96155.75
2022-11-18T16:59:36.178Z,96158.72
2022-11-18T17:01:40.347Z,96156.34
2022-11-18T17:03:43.622Z,96161.63
2022-11-18T17:05:46.215Z,96164.16
2022-11-18T17:07:50.209Z,96161.47
2022-11-18T17:09:52.897Z,96169.72
2022-11-18T17:11:56.619Z,96164.28
2022-11-18T17:13:59.221Z,96173.00
2022-11-18T17:16:05.226Z,96175.59
2022-11-18T17:18:07.858Z,96176.88
2022-11-18T17:20:11.358Z,96176.25
2022-11-18T17:22:14.069Z,96181.38
2022-11-18T17:24:21.025Z,96189.34
2022-11-18T17:26:25.230Z,96189.28
2022-11-18T17:28:28.080Z,96191.66
2022-11-18T17:30:30.704Z,96194.78
2022-11-18T17:32:33.327Z,96196.53
2022-11-18T17:34:36.001Z,96199.38
2022-11-18T17:36:38.953Z,96199.75
2022-11-18T17:38:43.148Z,96204.63
2022-11-18T17:40:47.089Z,96203.41
2022-11-18T17:42:51.226Z,96197.66
2022-11-18T17:44:53.824Z,96196.41
2022-11-18T17:46:58.812Z,96199.56
2022-11-18T17:49:03.456Z,96196.03
2022-11-18T17:51:06.563Z,96194.84
2022-11-18T17:53:09.158Z,96199.84
2022-11-18T17:55:11.727Z,96196.66
2022-11-18T17:57:15.658Z,96194.28
2022-11-18T17:59:18.352Z,96195.78
2022-11-18T18:01:22.631Z,96200.69
2022-11-18T18:03:25.281Z,96203.84
2022-11-18T18:05:28.248Z,96198.22
2022-11-18T18:07:31.037Z,96203.47
2022-11-18T18:09:33.653Z,96197.09
2022-11-18T18:11:36.291Z,96204.97
2022-11-18T18:13:58.627Z,96206.16
2022-11-18T18:16:02.037Z,96205.44
2022-11-18T18:18:04.897Z,96205.78
2022-11-18T18:20:08.352Z,96207.50
2022-11-18T18:22:10.961Z,96215.16
2022-11-18T18:24:15.227Z,96213.53
2022-11-18T18:26:20.847Z,96221.59
2022-11-18T18:28:23.488Z,96226.47
2022-11-18T18:30:27.452Z,96225.59
2022-11-18T18:32:30.128Z,96223.41
2022-11-18T18:34:32.759Z,96228.69
2022-11-18T18:36:35.618Z,96232.53
2022-11-18T18:38:40.406Z,96229.88
2022-11-18T18:40:43.254Z,96236.97
2022-11-18T18:42:45.918Z,96241.91
2022-11-18T18:45:17.695Z,96234.19
2022-11-18T18:47:21.610Z,96235.59
2022-11-18T18:49:24.460Z,96241.41
2022-11-18T18:51:28.403Z,96250.25
2022-11-18T18:53:31.696Z,96246.53
2022-11-18T18:55:34.291Z,96243.47
2022-11-18T18:57:37.506Z,96243.78
2022-11-18T18:59:40.109Z,96246.09
2022-11-18T19:01:42.816Z,96242.25
2022-11-18T19:03:47.311Z,96241.03
2022-11-18T19:06:21.943Z,96244.41
2022-11-18T19:08:12.489Z,96245.47
2022-11-18T19:10:15.352Z,96247.88
2022-11-18T19:12:38.583Z,96250.66
2022-11-18T19:14:41.239Z,96250.03
2022-11-18T19:16:44.021Z,96257.81
2022-11-18T19:18:48.090Z,96264.34
2022-11-18T19:20:49.911Z,96259.56
2022-11-18T19:22:52.977Z,96262.22
2022-11-18T19:24:55.964Z,96268.28
2022-11-18T19:26:59.081Z,96271.66
2022-11-18T19:29:01.755Z,96267.34
2022-11-18T19:31:04.389Z,96272.47
2022-11-18T19:33:07.039Z,96269.13
2022-11-18T19:35:11.284Z,96276.06
2022-11-18T19:37:13.950Z,96276.00
2022-11-18T19:39:16.811Z,96270.72
2022-11-18T19:41:19.816Z,96276.78
2022-11-18T19:43:22.459Z,96274.88
2022-11-18T19:45:25.017Z,96264.41
2022-11-18T19:47:27.893Z,96262.69
2022-11-18T19:49:30.598Z,96272.44
2022-11-18T19:51:36.908Z,96262.69
2022-11-18T19:53:40.876Z,96270.66
2022-11-18T19:55:43.571Z,96273.31
2022-11-18T19:57:46.245Z,96271.09
2022-11-18T19:59:48.837Z,96261.81
2022-11-18T20:01:51.490Z,96263.72
2022-11-18T20:03:55.916Z,96267.78
2022-11-18T20:06:01.877Z,96262.78
2022-11-18T20:08:06.029Z,96268.06
2022-11-18T20:10:10.102Z,96256.00
2022-11-18T20:12:12.750Z,96257.66
2022-11-18T20:14:15.435Z,96263.56
2022-11-18T20:16:20.250Z,96268.06
2022-11-18T20:18:23.207Z,96260.25
2022-11-18T20:20:25.799Z,96259.31
2022-11-18T20:22:28.399Z,96266.31
2022-11-18T20:24:32.339Z,96262.03
2022-11-18T20:26:37.110Z,96262.94
2022-11-18T20:28:41.658Z,96269.94
2022-11-18T20:30:47.045Z,96271.66
2022-11-18T20:32:49.729Z,96262.50
2022-11-18T20:34:52.342Z,96272.81
2022-11-18T20:36:54.994Z,96278.03
2022-11-18T20:38:59.030Z,96267.72
2022-11-18T20:41:03.871Z,96273.00
2022-11-18T20:43:14.715Z,96268.66
2022-11-18T20:45:17.461Z,96273.94
2022-11-18T20:47:20.119Z,96276.31
2022-11-18T20:49:22.752Z,96278.91
2022-11-18T20:51:29.429Z,96285.31
2022-11-18T20:53:32.574Z,96284.78
2022-11-18T20:55:38.861Z,96288.34
2022-11-18T20:57:42.780Z,96285.25
2022-11-18T20:59:45.378Z,96288.59
2022-11-18T21:01:48.909Z,96287.75
2022-11-18T21:03:53.611Z,96289.00
2022-11-18T21:05:56.192Z,96288.22
2022-11-18T21:07:58.933Z,96287.66
2022-11-18T21:10:02.626Z,96286.88
2022-11-18T21:12:05.342Z,96294.72
2022-11-18T21:14:23.987Z,96294.78
2022-11-18T21:16:28.802Z,96294.97
2022-11-18T21:18:31.397Z,96292.31
2022-11-18T21:20:51.589Z,96297.63
2022-11-18T21:22:54.294Z,96292.44
2022-11-18T21:24:56.994Z,96294.19
2022-11-18T21:27:01.462Z,96294.31
2022-11-18T21:29:06.273Z,96290.63
2022-11-18T21:31:10.550Z,96295.03
2022-11-18T21:33:13.628Z,96296.97
2022-11-18T21:35:16.293Z,96297.63
2022-11-18T21:37:18.976Z,96294.97
2022-11-18T21:39:21.948Z,96296.03
2022-11-18T21:41:24.823Z,96297.78
2022-11-18T21:44:03.475Z,96300.56
2022-11-18T21:45:54.595Z,96298.00
2022-11-18T21:47:58.640Z,96294.59
2022-11-18T21:50:01.389Z,96298.00
2022-11-18T21:52:04.127Z,96297.97
2022-11-18T21:54:07.366Z,96298.78
2022-11-18T21:56:12.367Z,96303.91
2022-11-18T21:58:14.999Z,96306.50
2022-11-18T22:00:18.711Z,96307.22
2022-11-18T22:02:21.311Z,96309.97
2022-11-18T22:04:42.790Z,96311.69
2022-11-18T22:06:45.401Z,96302.88
2022-11-18T22:08:48.394Z,96301.97
2022-11-18T22:10:50.962Z,96301.06
2022-11-18T22:12:53.589Z,96302.69
2022-11-18T22:14:56.210Z,96314.00
2022-11-18T22:16:58.799Z,96309.44
2022-11-18T22:19:06.723Z,96308.88
2022-11-18T22:21:14.888Z,96307.13
2022-11-18T22:23:21.499Z,96306.41
2022-11-18T22:25:24.574Z,96306.44
2022-11-18T22:27:27.142Z,96307.28
2022-11-18T22:29:30.039Z,96309.03
2022-11-18T22:31:32.880Z,96317.69
2022-11-18T22:33:35.502Z,96306.34
2022-11-18T22:35:38.071Z,96311.59
2022-11-18T22:37:42.325Z,96317.38
2022-11-18T22:39:46.244Z,96314.84
2022-11-18T22:42:06.405Z,96315.63
2022-11-18T22:44:10.521Z,96309.59
2022-11-18T22:46:13.364Z,96315.56
2022-11-18T22:48:15.978Z,96315.50
2022-11-18T22:50:19.009Z,96309.38
2022-11-18T22:52:21.572Z,96313.09
2022-11-18T22:54:41.191Z,96316.28
2022-11-18T22:56:43.862Z,96320.16
2022-11-18T22:58:46.601Z,96321.41
2022-11-18T23:00:49.299Z,96318.66
2022-11-18T23:02:51.857Z,96322.09
2022-11-18T23:04:54.433Z,96319.38
2022-11-18T23:06:57.095Z,96327.88
2022-11-18T23:09:13.705Z,96323.34
2022-11-18T23:11:40.152Z,96325.84
2022-11-18T23:14:03.536Z,96327.94
2022-11-18T23:16:06.614Z,96326.00
2022-11-18T23:18:11.717Z,96333.66
2022-11-18T23:20:14.825Z,96330.53
2022-11-18T23:22:17.463Z,96334.63
2022-11-18T23:24:20.507Z,96329.75
2022-11-18T23:26:24.931Z,96329.81
2022-11-18T23:28:27.521Z,96327.03
2022-11-18T23:30:30.105Z,96327.81
2022-11-18T23:32:32.710Z,96327.03
2022-11-18T23:34:35.348Z,96327.94
2022-11-18T23:36:37.963Z,96325.00
2022-11-18T23:38:41.022Z,96321.91
2022-11-18T23:40:43.616Z,96318.59
2022-11-18T23:42:47.541Z,96318.34
2022-11-18T23:44:50.149Z,96322.47
2022-11-18T23:46:52.767Z,96313.19
2022-11-18T23:48:55.779Z,96320.88
2022-11-18T23:51:00.867Z,96315.84
2022-11-18T23:53:03.660Z,96318.53
2022-11-18T23:55:06.983Z,96315.94
2022-11-18T23:57:09.666Z,96320.66
2022-11-18T23:59:13.644Z,96327.03
